EKVD

Kolding Vamdrup Airport

Kolding / Vamdrup, Denmark
METAR EKVD 211520Z AUTO 27011KT 240V300 //// ///////// 16/06 Q1020
Observed Flight Rules
Apr-21 @ 15:20 UTC (20 minutes ago)
Wind
270° at 11 knots
Temperatures Readings
Current 16°C / 61°F
Dewpoint 6°C / 43°F
Humidity 52%
Altimeter 30.12" Hg
Pressure 1020 hPa
Elevation 45
METAR EKVD 211520Z AUTO 27011KT 240V300 //// ///////// 16/06 Q1020
Observed Flight Rules
Apr-21 @ 15:20 UTC
(20 minutes ago)
Wind
270° at 11 knots
Temperature Dewpoint
16°C / 61°F 6°C / 43°F
Humidity Altimeter Pressure
52% 30.12" Hg 1020 hPa